Florence, KY

4:48 AM EDT on July 29, 2016 (GMT -0400)
KYTC_RWIS | | Change Station

Elev 911 ft 38.96 °N, 84.64 °W | Updated 18 minutes ago

Scattered Clouds
Scattered Clouds
72.0 °F
Feels Like 69 °F
N
3.0
Wind Variable Wind from SSE
Gusts 0.0 mph

Today
High -- | Low -- °F
--% Chance of Precip.
Yesterday
High -- | Low -- °F
Precip. -- in
Pressure 29.89 in
Visibility 3.0 miles
Clouds Scattered Clouds 300 ft
Heat Index 69 °F
Dew Point 69.0 °F
Humidity 91%
Rainfall in
Snow Depth Not available.
6:37 AM 8:52 PM
Waning Crescent, 24% visible
METAR KCVG 290752Z 26005KT 3SM R18C/4000VP6000FT BR SCT003 23/22 A2992 RMK AO2 SFC VIS 3 SLP121 SCT V BKN T02280222 $
Pressure 29.89 in
Visibility 3.0 miles
Clouds Scattered Clouds 300 ft
Heat Index 69 °F
Dew Point 69.0 °F
Humidity 91%
Rainfall in
Snow Depth Not available.
6:37 AM 8:52 PM
Waning Crescent, 24% visible
METAR KCVG 290752Z 26005KT 3SM R18C/4000VP6000FT BR SCT003 23/22 A2992 RMK AO2 SFC VIS 3 SLP121 SCT V BKN T02280222 $

10-Day Weather Forecast

Almanac

Astronomy

Jul. 29, 2016 Rise Set
Actual Time
Civil Twilight
Nautical Twilight
Astronomical Twilight
Moon
Length of Visible Light
Length of Day
Tomorrow will be .
, % of the Moon is Illuminated

Today's Extremes

State Highs State Lows

Community

WunderPhotos

Upload Photos

1,928,300 photos uploaded!

WunderBlog® & News

Nearby

Air Quality

  Air Quality AQ Index Pollutant
Not available.

Snow Depth

Station Depth Elevation

Earthquake Activity

City Distance Mag. Time & Date
Minimum magnitude displayed is 2.5.

Coastal Water Temperatures

Place Temperature

Stations

Nearby Weather Stations

Station Location Temp. Windchill Dew Point Humidity Wind Precip. Elev Updated Type
                   

Watches & Warnings

There are currently no watches in effect.